createdAt,value
2017-09-13T00:01:08.370Z,22.10
2017-09-13T00:03:37.611Z,35.13
2017-09-13T00:06:07.569Z,32.53
2017-09-13T00:08:36.814Z,28.63
2017-09-13T00:11:06.698Z,25.30
2017-09-13T00:13:36.446Z,17.93
2017-09-13T00:16:06.963Z,33.37
2017-09-13T00:18:36.519Z,25.90
2017-09-13T00:21:06.348Z,26.93
2017-09-13T00:23:36.417Z,23.40
2017-09-13T00:26:06.430Z,18.03
2017-09-13T00:28:36.582Z,17.73
2017-09-13T00:31:05.939Z,17.33
2017-09-13T00:33:35.180Z,17.40
2017-09-13T00:36:05.307Z,29.67
2017-09-13T00:38:34.516Z,21.90
2017-09-13T00:41:04.062Z,20.73
2017-09-13T00:43:33.298Z,26.50
2017-09-13T00:46:02.701Z,28.73
2017-09-13T00:48:35.490Z,31.67
2017-09-13T00:51:07.170Z,17.33
2017-09-13T00:53:36.476Z,20.20
2017-09-13T00:56:05.985Z,20.63
2017-09-13T00:58:35.177Z,16.10
2017-09-13T01:01:04.331Z,18.27
2017-09-13T01:03:33.521Z,26.40
2017-09-13T01:06:02.891Z,41.20
2017-09-13T01:08:32.115Z,27.57
2017-09-13T01:11:01.321Z,19.50
2017-09-13T01:13:31.674Z,17.17
2017-09-13T01:16:00.979Z,24.87
2017-09-13T01:18:30.175Z,19.87
2017-09-13T01:20:59.358Z,35.53
2017-09-13T01:23:30.144Z,24.67
2017-09-13T01:25:59.970Z,21.77
2017-09-13T01:28:29.987Z,23.63
2017-09-13T01:30:59.530Z,20.70
2017-09-13T01:33:28.806Z,17.97
2017-09-13T01:35:58.420Z,17.67
2017-09-13T01:38:29.504Z,26.70
2017-09-13T01:40:58.832Z,19.33
2017-09-13T01:43:29.501Z,26.10
2017-09-13T01:45:58.795Z,24.07
2017-09-13T01:48:28.175Z,29.03
2017-09-13T01:50:57.468Z,21.67
2017-09-13T01:53:26.691Z,21.53
2017-09-13T01:55:56.783Z,16.20
2017-09-13T01:58:26.003Z,12.47
2017-09-13T02:00:55.850Z,16.70
2017-09-13T02:03:25.129Z,18.07
2017-09-13T02:05:54.542Z,29.90
2017-09-13T02:08:24.194Z,23.10
2017-09-13T02:10:53.534Z,14.50
2017-09-13T02:13:22.733Z,14.10
2017-09-13T02:15:52.059Z,18.70
2017-09-13T02:18:21.246Z,16.20
2017-09-13T02:20:51.634Z,18.73
2017-09-13T02:23:21.025Z,16.53
2017-09-13T02:25:50.972Z,25.73
2017-09-13T02:28:20.967Z,22.83
2017-09-13T02:30:50.167Z,18.97
2017-09-13T02:33:19.386Z,21.70
2017-09-13T02:35:48.562Z,20.00
2017-09-13T02:38:17.699Z,25.03
2017-09-13T02:40:47.647Z,26.73
2017-09-13T02:43:16.871Z,28.80
2017-09-13T02:45:46.172Z,14.97
2017-09-13T02:48:15.410Z,23.33
2017-09-13T02:50:44.621Z,28.30
2017-09-13T02:53:13.832Z,22.43
2017-09-13T02:55:42.950Z,17.43
2017-09-13T02:58:12.956Z,24.53
2017-09-13T03:01:12.819Z,16.10
2017-09-13T03:03:42.802Z,24.07
2017-09-13T03:06:12.110Z,17.77
2017-09-13T03:08:41.272Z,15.27
2017-09-13T03:11:11.448Z,25.27
2017-09-13T03:13:41.355Z,24.83
2017-09-13T03:16:10.519Z,16.93
2017-09-13T03:18:40.445Z,29.97
2017-09-13T03:21:10.307Z,20.93
2017-09-13T03:23:39.724Z,16.83
2017-09-13T03:26:08.961Z,22.83
2017-09-13T03:28:38.979Z,30.77
2017-09-13T03:31:08.156Z,13.57
2017-09-13T03:33:37.326Z,21.10
2017-09-13T03:36:06.482Z,13.27
2017-09-13T03:38:35.606Z,12.60
2017-09-13T03:41:05.563Z,25.07
2017-09-13T03:43:34.713Z,15.60
2017-09-13T03:46:04.655Z,9.50
2017-09-13T03:48:33.845Z,9.73
2017-09-13T03:51:02.978Z,11.93
2017-09-13T03:53:32.869Z,9.33
2017-09-13T03:56:02.372Z,10.73
2017-09-13T03:58:31.533Z,10.73
2017-09-13T04:01:01.446Z,16.40
2017-09-13T04:03:30.674Z,12.70
2017-09-13T04:05:59.866Z,8.63
2017-09-13T04:08:29.877Z,12.80
2017-09-13T04:11:00.126Z,17.33
2017-09-13T04:13:29.279Z,12.17
2017-09-13T04:15:58.796Z,16.20
2017-09-13T04:18:28.670Z,8.60
2017-09-13T04:21:13.886Z,10.50
2017-09-13T04:23:43.800Z,11.30
2017-09-13T04:26:13.742Z,10.50
2017-09-13T04:28:42.995Z,9.50
2017-09-13T04:31:13.145Z,8.50
2017-09-13T04:33:42.257Z,9.63
2017-09-13T04:36:11.390Z,8.53
2017-09-13T04:38:40.527Z,7.57
2017-09-13T04:41:10.494Z,18.63
2017-09-13T04:43:55.792Z,11.47
2017-09-13T04:46:25.001Z,8.17
2017-09-13T04:48:54.946Z,11.30
2017-09-13T04:51:24.206Z,7.30
2017-09-13T04:53:53.451Z,7.40
2017-09-13T04:56:23.007Z,7.67
2017-09-13T04:58:52.219Z,9.27
2017-09-13T05:01:22.247Z,7.07
2017-09-13T05:03:52.192Z,7.30
2017-09-13T05:06:21.495Z,9.00
2017-09-13T05:08:50.756Z,7.70
2017-09-13T05:11:21.107Z,7.50
2017-09-13T05:13:52.118Z,10.20
2017-09-13T05:16:22.139Z,8.00
2017-09-13T05:18:52.100Z,7.40
2017-09-13T05:21:21.484Z,7.00
2017-09-13T05:23:51.191Z,8.03
2017-09-13T05:26:21.361Z,7.50
2017-09-13T05:28:50.846Z,10.60
2017-09-13T05:31:20.729Z,7.17
2017-09-13T05:33:50.126Z,7.07
2017-09-13T05:36:19.329Z,7.67
2017-09-13T05:38:48.913Z,7.80
2017-09-13T05:41:18.847Z,8.73
2017-09-13T05:43:48.553Z,6.97
2017-09-13T05:46:17.809Z,7.00
2017-09-13T05:48:47.166Z,6.87
2017-09-13T05:51:16.879Z,7.30
2017-09-13T05:53:46.237Z,7.40
2017-09-13T05:56:15.417Z,7.23
2017-09-13T05:58:45.142Z,7.60
2017-09-13T06:01:15.310Z,7.60
2017-09-13T06:03:45.327Z,7.40
2017-09-13T06:06:14.986Z,8.03
2017-09-13T06:08:44.262Z,7.40
2017-09-13T06:11:14.335Z,7.13
2017-09-13T06:13:44.446Z,7.10
2017-09-13T06:16:19.025Z,7.90
2017-09-13T06:18:48.595Z,7.80
2017-09-13T06:21:18.805Z,10.70
2017-09-13T06:23:49.419Z,10.80
2017-09-13T06:26:18.940Z,7.97
2017-09-13T06:28:50.821Z,7.50
2017-09-13T06:31:20.632Z,8.87
2017-09-13T06:33:57.542Z,6.80
2017-09-13T06:36:27.143Z,8.50
2017-09-13T06:38:57.389Z,7.80
2017-09-13T06:41:27.095Z,9.33
2017-09-13T06:43:57.932Z,7.00
2017-09-13T06:46:27.774Z,9.60
2017-09-13T06:48:57.148Z,7.60
2017-09-13T06:51:26.474Z,13.00
2017-09-13T06:53:56.492Z,9.50
2017-09-13T06:56:26.715Z,13.23
2017-09-13T06:59:07.608Z,7.90
2017-09-13T07:01:37.364Z,14.83
2017-09-13T07:04:06.975Z,14.20
2017-09-13T07:06:39.577Z,16.23
2017-09-13T07:09:08.965Z,17.73
2017-09-13T07:11:38.381Z,19.53
2017-09-13T07:14:09.876Z,16.90
2017-09-13T07:16:39.158Z,12.60
2017-09-13T07:19:09.276Z,15.83
2017-09-13T07:21:39.444Z,17.43
2017-09-13T07:24:08.697Z,13.87
2017-09-13T07:26:38.895Z,24.13
2017-09-13T07:29:09.029Z,17.93
2017-09-13T07:31:38.522Z,16.77
2017-09-13T07:34:08.904Z,21.13
2017-09-13T07:36:38.253Z,20.00
2017-09-13T07:39:08.715Z,18.67
2017-09-13T07:41:38.163Z,18.60
2017-09-13T07:44:07.418Z,16.97
2017-09-13T07:46:36.787Z,15.37
2017-09-13T07:49:08.187Z,19.30
2017-09-13T07:51:37.956Z,27.43
2017-09-13T07:54:08.246Z,31.17
2017-09-13T07:56:39.104Z,22.30
2017-09-13T07:59:08.556Z,22.43
2017-09-13T08:01:37.870Z,18.70
2017-09-13T08:04:07.853Z,30.83
2017-09-13T08:06:37.722Z,26.93
2017-09-13T08:09:07.076Z,33.93
2017-09-13T08:11:36.287Z,23.23
2017-09-13T08:14:05.536Z,26.37
2017-09-13T08:16:35.675Z,30.40
2017-09-13T08:19:04.944Z,21.33
2017-09-13T08:21:35.299Z,26.40
2017-09-13T08:24:05.341Z,17.00
2017-09-13T08:26:34.708Z,19.60
2017-09-13T08:29:04.058Z,36.00
2017-09-13T08:31:33.440Z,24.70
2017-09-13T08:34:02.747Z,33.50
2017-09-13T08:36:32.691Z,27.90
2017-09-13T08:39:03.251Z,26.27
2017-09-13T08:41:34.484Z,18.07
2017-09-13T08:44:03.802Z,19.00
2017-09-13T08:46:33.921Z,17.13
2017-09-13T08:49:03.421Z,24.23
2017-09-13T08:51:32.731Z,19.07
2017-09-13T08:55:05.722Z,24.20
2017-09-13T08:57:35.111Z,32.77
2017-09-13T09:00:05.288Z,23.60
2017-09-13T09:02:34.716Z,29.17
2017-09-13T09:05:05.082Z,22.57
2017-09-13T09:07:35.112Z,32.10
2017-09-13T09:10:04.359Z,23.80
2017-09-13T09:12:33.639Z,20.53
2017-09-13T09:15:03.211Z,29.17
2017-09-13T09:17:32.544Z,19.30
2017-09-13T09:20:01.999Z,32.60
2017-09-13T09:22:32.166Z,26.97
2017-09-13T09:25:01.339Z,23.60
2017-09-13T09:27:30.661Z,29.23
2017-09-13T09:30:00.477Z,22.00
2017-09-13T09:32:29.843Z,35.87
2017-09-13T09:35:00.018Z,36.13
2017-09-13T09:37:29.360Z,17.90
2017-09-13T09:39:59.486Z,21.50
2017-09-13T09:42:28.927Z,30.67
2017-09-13T09:44:58.289Z,16.43
2017-09-13T09:47:28.425Z,24.33
2017-09-13T09:49:57.710Z,17.33
2017-09-13T09:52:27.340Z,22.37
2017-09-13T09:54:56.506Z,36.70
2017-09-13T09:57:26.145Z,25.90
2017-09-13T09:59:55.476Z,22.53
2017-09-13T10:02:24.705Z,12.70
2017-09-13T10:04:55.351Z,19.00
2017-09-13T10:07:25.424Z,23.73
2017-09-13T10:09:54.879Z,16.30
2017-09-13T10:12:25.638Z,14.83
2017-09-13T10:14:55.919Z,13.13
2017-09-13T10:17:25.959Z,9.80
2017-09-13T10:19:57.811Z,13.33
2017-09-13T10:22:28.134Z,19.37
2017-09-13T10:24:58.405Z,10.27
2017-09-13T10:27:28.897Z,10.67
2017-09-13T10:29:58.957Z,21.50
2017-09-13T10:32:28.456Z,10.10
2017-09-13T10:34:58.134Z,13.60
2017-09-13T10:37:27.974Z,13.40
2017-09-13T10:39:57.408Z,13.27
2017-09-13T10:42:28.213Z,13.23
2017-09-13T10:45:24.343Z,13.87
2017-09-13T10:47:53.633Z,12.70
2017-09-13T10:50:23.238Z,22.10
2017-09-13T10:52:53.384Z,15.60
2017-09-13T10:55:22.939Z,14.80
2017-09-13T10:57:53.090Z,16.70
2017-09-13T11:00:22.590Z,12.90
2017-09-13T11:02:51.934Z,11.67
2017-09-13T11:05:21.491Z,12.10
2017-09-13T11:07:51.001Z,11.60
2017-09-13T11:10:20.660Z,30.80
2017-09-13T11:12:50.183Z,18.20
2017-09-13T11:15:19.484Z,21.13
2017-09-13T11:17:50.049Z,16.33
2017-09-13T11:20:19.396Z,20.50
2017-09-13T11:22:49.533Z,16.63
2017-09-13T11:25:19.880Z,16.20
2017-09-13T11:27:49.253Z,20.93
2017-09-13T11:30:19.317Z,22.40
2017-09-13T11:32:49.257Z,14.70
2017-09-13T11:35:18.627Z,15.10
2017-09-13T11:37:48.243Z,37.10
2017-09-13T11:40:17.604Z,13.33
2017-09-13T11:42:47.693Z,10.03
2017-09-13T11:45:23.478Z,12.60
2017-09-13T11:47:53.007Z,16.43
2017-09-13T11:50:22.698Z,15.20
2017-09-13T11:52:52.234Z,16.13
2017-09-13T11:55:23.689Z,20.23
2017-09-13T11:57:53.142Z,16.17
2017-09-13T12:00:23.667Z,22.17
2017-09-13T12:03:03.784Z,20.80
2017-09-13T12:05:34.444Z,20.90
2017-09-13T12:08:04.870Z,27.70
2017-09-13T12:10:34.430Z,20.20
2017-09-13T12:13:03.818Z,17.07
2017-09-13T12:15:33.734Z,23.63
2017-09-13T12:18:03.984Z,19.80
2017-09-13T12:20:34.056Z,25.10
2017-09-13T12:23:04.540Z,20.67
2017-09-13T12:25:34.475Z,16.40
2017-09-13T12:28:03.847Z,18.47
2017-09-13T12:30:33.653Z,22.20
2017-09-13T12:33:03.453Z,16.70
2017-09-13T12:35:32.945Z,13.37
2017-09-13T12:38:02.675Z,11.63
2017-09-13T12:40:32.193Z,37.20
2017-09-13T12:43:01.840Z,29.63
2017-09-13T12:45:31.610Z,16.80
2017-09-13T12:48:01.301Z,17.93
2017-09-13T12:50:31.304Z,13.30
2017-09-13T12:53:01.900Z,15.73
2017-09-13T12:55:31.448Z,11.30
2017-09-13T12:58:02.571Z,19.03
2017-09-13T13:00:37.015Z,15.23
2017-09-13T13:03:07.579Z,9.53
2017-09-13T13:05:36.945Z,15.60
2017-09-13T13:08:07.950Z,14.53
2017-09-13T13:10:37.796Z,11.00
2017-09-13T13:16:11.902Z,14.80
2017-09-13T13:18:41.664Z,10.50
2017-09-13T13:21:12.248Z,8.47
2017-09-13T13:23:43.637Z,9.10
2017-09-13T13:26:14.264Z,30.03
2017-09-13T13:28:45.988Z,13.03
2017-09-13T13:31:16.035Z,9.63
2017-09-13T13:33:45.559Z,14.90
2017-09-13T13:36:15.242Z,11.83
2017-09-13T13:38:45.007Z,21.77
2017-09-13T13:41:18.828Z,16.77
2017-09-13T13:43:53.425Z,22.23
2017-09-13T13:46:30.565Z,20.70
2017-09-13T13:49:01.896Z,16.70
2017-09-13T13:51:31.955Z,17.73
2017-09-13T13:54:01.793Z,26.43
2017-09-13T13:56:34.632Z,20.40
2017-09-13T13:59:05.019Z,23.60
2017-09-13T14:01:42.350Z,37.33
2017-09-13T14:04:12.163Z,29.00
2017-09-13T14:06:43.060Z,35.07
2017-09-13T14:09:27.149Z,54.67
2017-09-13T14:11:57.481Z,32.47
2017-09-13T14:14:27.013Z,47.80
2017-09-13T14:16:56.873Z,42.17
2017-09-13T14:19:26.621Z,40.30
2017-09-13T14:22:07.195Z,45.23
2017-09-13T14:24:43.672Z,28.10
2017-09-13T14:27:15.715Z,25.67
2017-09-13T14:29:46.828Z,17.20
2017-09-13T14:32:35.306Z,15.27
2017-09-13T14:35:08.920Z,16.60
2017-09-13T14:37:42.057Z,12.93
2017-09-13T14:40:12.560Z,10.70
2017-09-13T14:42:42.303Z,13.07
2017-09-13T14:45:12.200Z,14.73
2017-09-13T14:47:43.289Z,14.63
2017-09-13T14:50:13.754Z,17.53
2017-09-13T14:52:46.133Z,11.67
2017-09-13T14:55:17.282Z,22.00
2017-09-13T14:57:48.454Z,13.17
2017-09-13T15:00:23.326Z,13.87
2017-09-13T15:02:57.770Z,11.70
2017-09-13T15:05:30.929Z,17.27
2017-09-13T15:08:04.519Z,19.90
2017-09-13T15:10:35.200Z,15.87
2017-09-13T15:13:07.398Z,19.83
2017-09-13T15:15:37.412Z,18.90
2017-09-13T15:18:09.356Z,18.40
2017-09-13T15:20:39.708Z,15.20
2017-09-13T15:23:12.898Z,23.10
2017-09-13T15:25:43.971Z,15.13
2017-09-13T15:55:00.851Z,23.60
2017-09-13T15:57:33.899Z,17.23
2017-09-13T16:00:06.561Z,33.40
2017-09-13T16:02:43.820Z,19.73
2017-09-13T16:05:17.364Z,21.67
2017-09-13T16:07:48.381Z,23.70
2017-09-13T16:10:20.488Z,25.80
2017-09-13T16:12:53.710Z,40.60
2017-09-13T16:15:25.698Z,29.10
2017-09-13T16:20:40.631Z,29.70
2017-09-13T16:23:14.277Z,34.43
2017-09-13T16:25:46.092Z,29.43
2017-09-13T16:28:16.949Z,33.27
2017-09-13T16:30:49.530Z,37.87
2017-09-13T16:33:21.755Z,31.37
2017-09-13T16:35:56.058Z,31.90
2017-09-13T16:38:36.798Z,40.60
2017-09-13T16:41:06.604Z,32.07
2017-09-13T16:43:41.065Z,57.43
2017-09-13T16:46:15.527Z,110.13
2017-09-13T16:48:48.017Z,42.20
2017-09-13T16:51:22.178Z,36.27
2017-09-13T16:53:55.702Z,34.93
2017-09-13T16:56:29.311Z,62.17
2017-09-13T16:59:02.742Z,49.97
2017-09-13T17:01:38.054Z,59.73
2017-09-13T17:04:11.171Z,52.43
2017-09-13T17:06:44.167Z,45.53
2017-09-13T17:09:19.329Z,36.03
2017-09-13T17:11:53.602Z,41.40
2017-09-13T17:14:33.194Z,39.40
2017-09-13T17:17:07.070Z,48.70
2017-09-13T17:19:42.965Z,43.90
2017-09-13T17:22:16.675Z,37.40
2017-09-13T17:24:50.433Z,47.07
2017-09-13T17:27:26.887Z,35.77
2017-09-13T17:30:02.218Z,35.70
2017-09-13T17:32:38.354Z,38.17
2017-09-13T17:35:12.192Z,49.80
2017-09-13T17:37:45.740Z,46.23
2017-09-13T17:40:19.770Z,36.63
2017-09-13T17:45:37.271Z,49.67
2017-09-13T17:48:36.064Z,36.10
2017-09-13T17:51:10.437Z,49.77
2017-09-13T17:53:43.758Z,46.53
2017-09-13T17:56:17.636Z,52.67
2017-09-13T17:58:50.402Z,43.10
2017-09-13T18:01:24.376Z,33.27
2017-09-13T18:03:56.031Z,34.53
2017-09-13T18:06:27.029Z,49.00
2017-09-13T18:08:57.575Z,49.70
2017-09-13T18:11:32.161Z,59.90
2017-09-13T18:14:08.596Z,38.87
2017-09-13T18:16:40.784Z,38.67
2017-09-13T18:19:15.136Z,67.80
2017-09-13T18:21:50.544Z,54.47
2017-09-13T18:24:23.689Z,96.83
2017-09-13T18:26:59.247Z,48.00
2017-09-13T18:29:33.268Z,157.53
2017-09-13T18:32:11.634Z,56.20
2017-09-13T18:34:45.537Z,43.30
2017-09-13T18:37:23.817Z,53.90
2017-09-13T18:40:00.354Z,44.23
2017-09-13T18:42:35.216Z,61.60
2017-09-13T18:45:06.651Z,54.87
2017-09-13T18:47:38.743Z,69.73
2017-09-13T18:50:15.724Z,77.90
2017-09-13T18:52:49.536Z,67.83
2017-09-13T18:55:26.446Z,64.37
2017-09-13T18:58:04.297Z,52.60
2017-09-13T19:00:42.463Z,74.03
2017-09-13T19:03:16.157Z,59.50
2017-09-13T19:05:57.238Z,60.87
2017-09-13T19:08:35.384Z,53.87
2017-09-13T19:11:20.455Z,301.47
2017-09-13T19:13:56.133Z,52.53
2017-09-13T19:16:34.268Z,77.20
2017-09-13T19:19:13.765Z,62.47
2017-09-13T19:21:53.067Z,34.23
2017-09-13T19:24:28.279Z,39.73
2017-09-13T19:27:04.131Z,52.67
2017-09-13T19:29:39.439Z,67.27
2017-09-13T19:32:13.804Z,110.97
2017-09-13T19:34:49.148Z,107.63
2017-09-13T19:37:26.582Z,109.30
2017-09-13T19:40:00.469Z,87.57
2017-09-13T19:42:33.096Z,61.10
2017-09-13T19:45:10.071Z,64.17
2017-09-13T19:47:44.480Z,51.30
2017-09-13T19:50:16.974Z,58.00
2017-09-13T19:52:50.989Z,37.43
2017-09-13T19:55:25.290Z,54.30
2017-09-13T19:57:58.964Z,43.97
2017-09-13T20:00:33.485Z,49.80
2017-09-13T20:03:07.020Z,59.40
2017-09-13T20:05:43.079Z,65.00
2017-09-13T20:08:22.132Z,171.23
2017-09-13T20:10:56.293Z,57.27
2017-09-13T20:13:28.929Z,41.70
2017-09-13T20:16:01.370Z,93.57
2017-09-13T20:18:33.530Z,47.70
2017-09-13T20:21:07.285Z,44.00
2017-09-13T20:23:49.280Z,73.37
2017-09-13T20:26:22.768Z,57.70
2017-09-13T20:28:56.178Z,78.60
2017-09-13T20:31:29.257Z,67.07
2017-09-13T20:34:04.179Z,50.07
2017-09-13T20:36:35.937Z,71.47
2017-09-13T20:39:07.716Z,169.73
2017-09-13T20:41:40.392Z,111.87
2017-09-13T20:44:13.532Z,82.27
2017-09-13T20:46:44.230Z,54.83
2017-09-13T20:49:14.085Z,67.40
2017-09-13T20:51:44.076Z,54.17
2017-09-13T20:54:13.969Z,63.17
2017-09-13T20:56:44.418Z,81.23
2017-09-13T20:59:14.651Z,45.50
2017-09-13T21:01:48.379Z,62.77
2017-09-13T21:04:18.810Z,39.27
2017-09-13T21:06:49.342Z,43.33
2017-09-13T21:09:19.549Z,63.47
2017-09-13T21:12:33.573Z,46.27
2017-09-13T21:15:04.479Z,40.93
2017-09-13T21:17:35.852Z,34.50
2017-09-13T21:20:05.372Z,56.47
2017-09-13T21:22:35.314Z,62.00
2017-09-13T21:25:06.240Z,46.93
2017-09-13T21:27:40.637Z,52.07
2017-09-13T21:30:13.890Z,37.03
2017-09-13T21:36:04.611Z,57.50
2017-09-13T21:38:34.934Z,48.70
2017-09-13T21:41:07.246Z,33.77
2017-09-13T21:43:40.197Z,55.67
2017-09-13T21:46:09.788Z,55.50
2017-09-13T21:48:45.402Z,42.23
2017-09-13T21:51:15.298Z,42.10
2017-09-13T21:53:56.037Z,48.30
2017-09-13T21:56:26.886Z,33.43
2017-09-13T22:18:52.540Z,28.47
2017-09-13T22:21:22.365Z,31.10
2017-09-13T22:23:51.838Z,17.17
2017-09-13T22:26:22.720Z,36.90
2017-09-13T22:28:53.591Z,22.90
2017-09-13T22:31:24.032Z,28.10
2017-09-13T22:33:54.480Z,33.53
2017-09-13T22:36:24.000Z,40.27
2017-09-13T22:38:55.033Z,28.20
2017-09-13T22:41:27.421Z,18.53
2017-09-13T22:43:57.697Z,16.37
2017-09-13T22:46:38.260Z,19.20
2017-09-13T22:49:07.972Z,35.23
2017-09-13T22:51:37.641Z,21.17
2017-09-13T22:54:07.295Z,35.57
2017-09-13T22:56:37.256Z,25.00
2017-09-13T22:59:06.762Z,34.10
2017-09-13T23:01:36.005Z,27.67
2017-09-13T23:04:05.619Z,27.57
2017-09-13T23:06:35.480Z,16.37
2017-09-13T23:09:05.224Z,19.73
2017-09-13T23:11:34.649Z,24.90
2017-09-13T23:14:04.162Z,28.23
2017-09-13T23:16:34.329Z,20.90
2017-09-13T23:19:03.707Z,19.27
2017-09-13T23:21:33.153Z,27.53
2017-09-13T23:24:02.491Z,35.23
2017-09-13T23:26:32.691Z,19.47
2017-09-13T23:29:02.213Z,33.20
2017-09-13T23:31:32.228Z,28.00
2017-09-13T23:34:02.269Z,41.03
2017-09-13T23:36:31.567Z,16.23
2017-09-13T23:39:01.158Z,23.90
2017-09-13T23:41:31.381Z,24.80
2017-09-13T23:44:01.331Z,22.23
2017-09-13T23:46:31.055Z,29.73
2017-09-13T23:49:00.413Z,30.80
2017-09-13T23:51:30.556Z,18.87
2017-09-13T23:53:59.809Z,20.77
2017-09-13T23:56:29.188Z,44.60
2017-09-13T23:58:59.001Z,18.73
